Time;durP1;ratioP1;P1;durP2;ratioP2;P2;SDS_P1;SDS_P2;PMS_P1;PMS_P2;Temp;Humidity;BMP_temperature;BMP_pressure;BME280_temperature;BME280_humidity;BME280_pressure;Samples;Min_cycle;Max_cycle;Signal;HPM_P1;HPM_P2
2022/04/15 00:00:58;;;;;;;63.42;30.70;;;;;;;7.91;100.00;102695.06;5042665;28;20065;-72
2022/04/15 00:03:30;;;;;;;70.55;32.00;;;;;;;7.94;100.00;102691.72;5041198;28;20771;-73
2022/04/15 00:05:59;;;;;;;74.97;32.33;;;;;;;7.93;100.00;102697.75;5036401;28;20049;-73
2022/04/15 00:08:27;;;;;;;69.30;31.25;;;;;;;7.94;100.00;102686.47;5031990;28;20317;-72
2022/04/15 00:10:57;;;;;;;66.57;30.42;;;;;;;7.92;100.00;102695.94;5033934;28;20049;-72
2022/04/15 00:13:32;;;;;;;71.00;32.55;;;;;;;7.95;100.00;102696.13;5037050;28;20155;-73
2022/04/15 00:16:02;;;;;;;65.80;32.97;;;;;;;7.95;100.00;102698.72;5043603;28;20138;-72
2022/04/15 00:18:31;;;;;;;71.05;33.00;;;;;;;7.95;100.00;102704.84;5040276;28;20075;-73
2022/04/15 00:20:59;;;;;;;73.60;31.42;;;;;;;7.90;100.00;102701.09;5040254;28;20067;-72
2022/04/15 00:23:27;;;;;;;66.72;31.92;;;;;;;7.90;100.00;102695.88;5035163;28;20057;-73
2022/04/15 00:25:56;;;;;;;70.85;34.55;;;;;;;7.88;100.00;102700.13;5034711;28;20049;-73
2022/04/15 00:28:24;;;;;;;67.70;34.30;;;;;;;7.87;100.00;102698.31;5041695;28;20057;-75
2022/04/15 00:30:52;;;;;;;70.20;31.20;;;;;;;7.83;100.00;102702.47;5037541;28;20051;-73
2022/04/15 00:33:22;;;;;;;63.42;30.50;;;;;;;7.84;100.00;102706.00;5041159;28;20504;-73
2022/04/15 00:35:50;;;;;;;64.60;28.45;;;;;;;7.79;100.00;102703.13;5041255;28;20119;-74
2022/04/15 00:38:19;;;;;;;67.70;30.70;;;;;;;7.78;100.00;102703.94;5050020;28;20045;-73
2022/04/15 00:40:47;;;;;;;59.13;29.40;;;;;;;7.77;100.00;102703.84;5044127;28;20045;-72
2022/04/15 00:43:15;;;;;;;66.55;30.27;;;;;;;7.76;100.00;102712.50;5039340;28;20681;-73
2022/04/15 00:45:46;;;;;;;59.80;30.75;;;;;;;7.77;100.00;102709.09;5043738;28;20128;-73
2022/04/15 00:48:16;;;;;;;61.30;31.20;;;;;;;7.75;100.00;102709.00;5040858;28;20060;-73
2022/04/15 00:50:46;;;;;;;62.85;29.25;;;;;;;7.75;100.00;102702.88;5046060;28;20044;-73
2022/04/15 00:53:17;;;;;;;64.63;29.85;;;;;;;7.75;100.00;102709.00;5037724;28;20276;-75
2022/04/15 00:55:48;;;;;;;64.18;30.83;;;;;;;7.76;100.00;102716.03;5039080;28;20098;-75
2022/04/15 00:58:18;;;;;;;60.08;30.02;;;;;;;7.76;100.00;102708.19;5042910;28;20051;-75
2022/04/15 01:00:46;;;;;;;62.78;29.25;;;;;;;7.73;100.00;102713.25;5036426;28;20057;-75
2022/04/15 01:03:17;;;;;;;63.05;28.85;;;;;;;7.69;100.00;102716.50;5040780;28;20474;-75
2022/04/15 01:05:49;;;;;;;60.15;29.77;;;;;;;7.70;100.00;102720.91;5043436;28;20154;-75
2022/04/15 01:08:21;;;;;;;62.67;29.33;;;;;;;7.71;100.00;102714.88;5045435;28;20057;-75
2022/04/15 01:10:52;;;;;;;63.10;30.27;;;;;;;7.69;100.00;102708.66;5040191;28;20132;-75
2022/04/15 01:13:22;;;;;;;56.00;27.05;;;;;;;7.67;100.00;102706.78;5039170;28;20337;-76
2022/04/15 01:15:52;;;;;;;56.90;27.92;;;;;;;7.65;100.00;102711.03;5032352;28;20091;-75
2022/04/15 01:18:23;;;;;;;52.55;26.63;;;;;;;7.61;100.00;102712.56;5037237;28;20120;-75
2022/04/15 01:20:53;;;;;;;56.38;25.88;;;;;;;7.53;100.00;102719.97;5044235;28;20888;-75
2022/04/15 01:23:22;;;;;;;57.38;26.33;;;;;;;7.53;100.00;102725.19;5039029;28;20524;-73
2022/04/15 01:25:51;;;;;;;61.47;28.08;;;;;;;7.49;100.00;102725.84;5043963;28;20111;-73
2022/04/15 01:28:19;;;;;;;66.60;29.70;;;;;;;7.46;100.00;102717.84;5039607;28;20614;-73
2022/04/15 01:30:48;;;;;;;62.30;29.98;;;;;;;7.43;100.00;102727.22;5041680;28;20041;-73
2022/04/15 01:33:16;;;;;;;60.33;30.00;;;;;;;7.43;100.00;102722.91;5038600;28;20297;-73
2022/04/15 01:35:49;;;;;;;59.25;27.35;;;;;;;7.40;100.00;102720.13;5037260;28;20041;-73
2022/04/15 01:38:18;;;;;;;57.75;28.13;;;;;;;7.38;100.00;102729.56;5044408;28;20048;-73
2022/04/15 01:40:48;;;;;;;56.17;28.38;;;;;;;7.38;100.00;102733.88;5038517;28;20095;-73
2022/04/15 01:43:16;;;;;;;61.03;30.40;;;;;;;7.36;100.00;102731.19;5039010;28;20550;-73
2022/04/15 01:45:44;;;;;;;63.65;29.27;;;;;;;7.34;100.00;102727.59;5040867;28;20072;-75
2022/04/15 01:48:12;;;;;;;63.53;29.52;;;;;;;7.35;100.00;102733.72;5033530;28;20044;-75
2022/04/15 01:50:39;;;;;;;65.53;30.42;;;;;;;7.39;100.00;102733.97;5040190;28;20063;-75
2022/04/15 01:53:07;;;;;;;61.85;29.92;;;;;;;7.39;100.00;102726.16;5036140;28;20591;-75
2022/04/15 01:55:36;;;;;;;61.92;28.15;;;;;;;7.38;100.00;102734.78;5033571;28;20071;-75
2022/04/15 01:58:05;;;;;;;62.53;27.88;;;;;;;7.34;100.00;102730.22;5039007;28;20106;-73
2022/04/15 02:00:33;;;;;;;62.30;29.77;;;;;;;7.38;100.00;102728.66;5033875;28;20172;-73
2022/04/15 02:03:01;;;;;;;60.78;29.42;;;;;;;7.40;100.00;102735.78;5037925;28;20050;-74
2022/04/15 02:05:30;;;;;;;71.10;32.05;;;;;;;7.45;100.00;102744.75;5041455;28;20497;-75
2022/04/15 02:07:57;;;;;;;76.18;34.08;;;;;;;7.53;100.00;102747.81;5038290;28;20132;-75
2022/04/15 02:10:25;;;;;;;75.18;33.33;;;;;;;7.55;100.00;102747.06;5043108;28;20049;-75
2022/04/15 02:12:53;;;;;;;69.88;32.50;;;;;;;7.53;100.00;102751.31;5037875;28;20453;-75
2022/04/15 02:15:22;;;;;;;70.63;31.20;;;;;;;7.55;100.00;102754.00;5040188;28;20056;-73
2022/04/15 02:17:50;;;;;;;68.97;31.33;;;;;;;7.57;100.00;102749.78;5037325;28;20051;-73
2022/04/15 02:20:18;;;;;;;64.28;30.23;;;;;;;7.44;100.00;102763.84;5040265;28;20089;-72
2022/04/15 02:22:46;;;;;;;66.32;29.55;;;;;;;7.44;100.00;102749.91;5043075;28;20049;-73
2022/04/15 02:25:14;;;;;;;65.38;28.80;;;;;;;7.47;100.00;102748.34;5038878;28;20056;-73
2022/04/15 02:27:44;;;;;;;68.13;28.95;;;;;;;7.44;100.00;102748.19;5040898;28;20537;-73
2022/04/15 02:30:12;;;;;;;68.82;30.13;;;;;;;7.43;100.00;102762.06;5037973;28;20045;-73
2022/04/15 02:32:41;;;;;;;68.38;29.63;;;;;;;7.47;100.00;102750.06;5047324;28;20207;-75
2022/04/15 02:35:09;;;;;;;60.47;27.80;;;;;;;7.47;100.00;102755.28;5042459;28;20144;-75
2022/04/15 02:37:37;;;;;;;62.97;26.98;;;;;;;7.46;100.00;102764.84;5034965;28;20099;-72
2022/04/15 02:40:07;;;;;;;50.67;23.95;;;;;;;7.47;100.00;102758.81;5044365;28;20041;-73
2022/04/15 02:42:36;;;;;;;56.22;23.38;;;;;;;7.38;100.00;102773.03;5034562;28;20049;-73
2022/04/15 02:45:05;;;;;;;52.22;24.13;;;;;;;7.38;100.00;102771.34;5044102;28;20068;-73
2022/04/15 02:47:32;;;;;;;56.65;25.15;;;;;;;7.44;100.00;102769.06;5037657;28;20045;-74
2022/04/15 02:50:03;;;;;;;58.88;24.10;;;;;;;7.46;100.00;102774.38;5045832;28;20076;-73
2022/04/15 02:52:31;;;;;;;55.35;24.90;;;;;;;7.45;100.00;102776.09;5035944;28;20473;-73
2022/04/15 02:54:59;;;;;;;54.17;24.52;;;;;;;7.50;100.00;102785.09;5040463;28;20115;-73
2022/04/15 02:57:27;;;;;;;54.15;23.60;;;;;;;7.45;100.00;102778.69;5038479;28;20664;-73
2022/04/15 02:59:55;;;;;;;50.15;22.52;;;;;;;7.39;100.00;102783.56;5038273;28;20049;-75
2022/04/15 03:02:23;;;;;;;57.10;22.48;;;;;;;7.36;100.00;102786.00;5018127;28;20388;-75
2022/04/15 03:04:51;;;;;;;50.05;23.13;;;;;;;7.49;100.00;102788.50;5034547;28;20041;-75
2022/04/15 03:07:20;;;;;;;48.75;22.30;;;;;;;7.45;100.00;102783.91;5033863;28;20081;-75
2022/04/15 03:09:48;;;;;;;46.17;22.35;;;;;;;7.52;100.00;102788.69;5038735;28;20483;-75
2022/04/15 03:12:16;;;;;;;47.10;22.15;;;;;;;7.55;100.00;102791.47;5034133;28;20100;-75
2022/04/15 03:14:44;;;;;;;48.22;21.17;;;;;;;7.62;100.00;102800.53;5037504;28;20052;-76
2022/04/15 03:17:12;;;;;;;46.53;21.13;;;;;;;7.64;100.00;102792.78;5033797;28;20175;-74
2022/04/15 03:19:40;;;;;;;40.72;20.23;;;;;;;7.58;100.00;102795.06;5034589;28;20160;-75
2022/04/15 03:22:08;;;;;;;44.42;19.67;;;;;;;7.60;100.00;102794.34;5032260;28;20725;-75
2022/04/15 03:24:37;;;;;;;41.97;19.98;;;;;;;7.63;100.00;102791.00;5038393;28;20057;-75
2022/04/15 03:27:06;;;;;;;41.67;19.83;;;;;;;7.67;100.00;102799.09;5036384;28;20122;-75
2022/04/15 03:29:34;;;;;;;50.95;21.15;;;;;;;7.70;100.00;102791.44;5034584;28;20052;-75
2022/04/15 03:32:02;;;;;;;42.72;18.17;;;;;;;7.71;100.00;102797.53;5041062;28;20056;-75
2022/04/15 03:34:29;;;;;;;43.47;20.17;;;;;;;7.67;100.00;102795.59;5033345;28;20049;-74
2022/04/15 03:36:57;;;;;;;43.45;19.13;;;;;;;7.71;100.00;102797.53;5036793;28;20044;-73
2022/04/15 03:39:25;;;;;;;41.95;19.35;;;;;;;7.68;100.00;102800.88;5034739;28;20076;-73
2022/04/15 03:41:54;;;;;;;48.40;21.13;;;;;;;7.65;100.00;102799.81;5040530;28;20049;-74
2022/04/15 03:44:22;;;;;;;41.15;19.08;;;;;;;7.64;100.00;102800.63;5043162;28;20064;-73
2022/04/15 03:46:51;;;;;;;39.13;18.38;;;;;;;7.68;100.00;102802.59;5037549;28;20041;-73
2022/04/15 03:49:19;;;;;;;40.05;18.25;;;;;;;7.72;100.00;102804.56;5043327;28;20253;-73
2022/04/15 03:51:47;;;;;;;41.03;19.17;;;;;;;7.63;100.00;102804.94;5041330;28;20504;-73
2022/04/15 03:54:14;;;;;;;39.83;17.42;;;;;;;7.62;100.00;102807.47;5040249;28;20056;-73
2022/04/15 03:56:43;;;;;;;38.08;16.17;;;;;;;7.53;100.00;102818.31;5045593;28;20033;-73
2022/04/15 03:59:12;;;;;;;32.60;16.80;;;;;;;7.50;100.00;102819.03;5042606;28;20327;-75
2022/04/15 04:01:40;;;;;;;37.78;17.02;;;;;;;7.52;100.00;102816.50;5038069;28;20087;-74
2022/04/15 04:04:08;;;;;;;39.20;17.67;;;;;;;7.56;100.00;102818.47;5043878;28;20092;-75
2022/04/15 04:06:36;;;;;;;37.70;17.20;;;;;;;7.52;100.00;102812.19;5043568;28;20073;-75
2022/04/15 04:09:04;;;;;;;40.67;17.35;;;;;;;7.59;100.00;102812.53;5043848;28;20049;-75
2022/04/15 04:11:32;;;;;;;35.63;16.13;;;;;;;7.56;100.00;102818.47;5042121;28;20052;-74
2022/04/15 04:14:00;;;;;;;32.08;16.05;;;;;;;7.51;100.00;102822.53;5045394;28;20066;-75
2022/04/15 04:16:30;;;;;;;34.13;15.80;;;;;;;7.38;100.00;102820.94;5040131;28;20053;-74
2022/04/15 04:18:58;;;;;;;31.88;14.55;;;;;;;7.39;100.00;102820.13;5041960;28;20103;-75
2022/04/15 04:21:26;;;;;;;35.35;17.35;;;;;;;7.39;100.00;102824.44;5035099;28;20140;-74
2022/04/15 04:23:54;;;;;;;33.70;16.35;;;;;;;7.43;100.00;102818.59;5038584;28;20087;-75
2022/04/15 04:26:22;;;;;;;30.70;15.32;;;;;;;7.40;100.00;102821.03;5040721;28;20091;-75
2022/04/15 04:28:49;;;;;;;35.97;16.52;;;;;;;7.43;100.00;102824.69;5041345;28;20148;-75
2022/04/15 04:31:20;;;;;;;31.15;13.90;;;;;;;7.44;100.00;102826.50;5030170;28;20530;-74
2022/04/15 04:33:50;;;;;;;31.85;16.25;;;;;;;7.46;100.00;102827.50;5041069;28;20045;-75
2022/04/15 04:36:18;;;;;;;32.50;14.50;;;;;;;7.46;100.00;102827.50;5040572;28;20601;-75
2022/04/15 04:38:45;;;;;;;28.17;13.77;;;;;;;7.46;100.00;102827.50;5039135;28;20094;-74
2022/04/15 04:41:14;;;;;;;29.58;14.88;;;;;;;7.43;100.00;102832.53;5016592;28;20482;-74
2022/04/15 04:43:42;;;;;;;30.58;14.70;;;;;;;7.53;100.00;102840.09;5049375;28;20097;-75
2022/04/15 04:46:10;;;;;;;32.17;15.18;;;;;;;7.43;100.00;102839.47;5038861;28;20051;-74
2022/04/15 04:48:38;;;;;;;32.03;15.02;;;;;;;7.36;100.00;102838.22;5035517;28;20056;-74
2022/04/15 04:51:07;;;;;;;32.22;16.45;;;;;;;7.35;100.00;102843.34;5038730;28;20126;-76
2022/04/15 04:53:35;;;;;;;29.75;13.52;;;;;;;7.32;100.00;102836.25;5033680;28;20091;-75
2022/04/15 04:56:04;;;;;;;30.98;15.15;;;;;;;7.35;100.00;102844.25;5047604;28;20364;-74
2022/04/15 04:58:31;;;;;;;31.48;14.95;;;;;;;7.37;100.00;102847.84;5035966;28;20061;-75
2022/04/15 05:00:59;;;;;;;32.95;16.52;;;;;;;7.33;100.00;102845.88;5036528;28;20444;-73
2022/04/15 05:03:27;;;;;;;39.63;17.23;;;;;;;7.42;100.00;102843.78;5037122;28;20057;-73
2022/04/15 05:05:55;;;;;;;35.25;15.10;;;;;;;7.50;100.00;102855.56;5046088;28;20128;-73
2022/04/15 05:08:24;;;;;;;31.85;15.48;;;;;;;7.52;100.00;102853.94;5042318;28;20068;-73
2022/04/15 05:10:52;;;;;;;35.92;16.20;;;;;;;7.58;100.00;102847.28;5041388;28;20106;-73
2022/04/15 05:13:20;;;;;;;30.60;15.13;;;;;;;7.59;100.00;102857.81;5040767;28;20221;-73
2022/04/15 05:15:48;;;;;;;30.00;14.65;;;;;;;7.64;100.00;102858.09;5036423;28;20057;-73
2022/04/15 05:18:16;;;;;;;32.08;15.20;;;;;;;7.65;100.00;102862.50;5043096;28;20071;-73
2022/04/15 05:20:45;;;;;;;28.73;14.77;;;;;;;7.65;100.00;102868.63;5044580;28;20548;-74
2022/04/15 05:23:13;;;;;;;30.35;14.02;;;;;;;7.64;100.00;102869.44;5043157;28;20048;-74
2022/04/15 05:25:42;;;;;;;28.02;12.38;;;;;;;7.61;100.00;102879.69;5041155;28;20052;-74
2022/04/15 05:28:10;;;;;;;27.25;13.65;;;;;;;7.62;100.00;102880.59;5037906;28;20128;-74
2022/04/15 05:30:38;;;;;;;27.95;14.02;;;;;;;7.62;100.00;102888.44;5040373;28;20167;-74
2022/04/15 05:33:05;;;;;;;27.08;14.05;;;;;;;7.65;100.00;102892.13;5039973;28;20067;-74
2022/04/15 05:35:34;;;;;;;33.20;14.38;;;;;;;7.68;100.00;102896.63;5033061;28;20096;-74
2022/04/15 05:38:01;;;;;;;26.50;13.30;;;;;;;7.69;100.00;102895.81;5046026;28;20109;-74
2022/04/15 05:40:29;;;;;;;32.47;14.10;;;;;;;7.62;100.00;102909.31;5035364;28;20136;-74
2022/04/15 05:42:58;;;;;;;32.17;14.45;;;;;;;7.72;100.00;102903.81;5042705;28;20048;-74
2022/04/15 05:45:26;;;;;;;34.17;16.27;;;;;;;7.66;100.00;102903.47;5032660;28;20061;-74
2022/04/15 05:47:57;;;;;;;31.40;14.27;;;;;;;7.69;100.00;102898.41;5033681;28;20811;-74
2022/04/15 05:50:25;;;;;;;31.58;14.30;;;;;;;7.78;100.00;102904.16;5043410;28;20057;-74
2022/04/15 05:52:53;;;;;;;36.33;15.45;;;;;;;7.82;100.00;102908.75;5039609;28;20059;-75
2022/04/15 05:55:21;;;;;;;31.25;14.43;;;;;;;7.83;100.00;102903.63;5040272;28;20061;-74
2022/04/15 05:57:49;;;;;;;32.60;15.85;;;;;;;7.82;100.00;102908.75;5043874;28;20124;-73
2022/04/15 06:00:19;;;;;;;32.10;15.18;;;;;;;7.85;100.00;102907.22;5039670;28;20060;-74
2022/04/15 06:02:47;;;;;;;34.83;15.15;;;;;;;7.85;100.00;102901.09;5039064;28;20144;-74
2022/04/15 06:05:22;;;;;;;39.35;16.92;;;;;;;7.88;100.00;102909.09;5041303;28;20526;-74
2022/04/15 06:07:50;;;;;;;37.22;17.42;;;;;;;7.95;100.00;102911.25;5045058;28;20575;-73
2022/04/15 06:10:19;;;;;;;37.83;17.73;;;;;;;8.02;100.00;102916.03;5038071;28;20041;-71
2022/04/15 06:15:34;;;;;;;40.47;17.25;;;;;;;8.17;100.00;102922.13;5033750;28;20090;-73
2022/04/15 06:18:03;;;;;;;39.08;16.75;;;;;;;8.16;100.00;102930.75;5037398;28;20122;-74
2022/04/15 06:20:31;;;;;;;37.45;16.95;;;;;;;8.22;100.00;102931.94;5042568;28;20068;-71
2022/04/15 06:22:59;;;;;;;37.63;16.92;;;;;;;8.19;100.00;102933.56;5042027;28;20563;-74
2022/04/15 06:25:28;;;;;;;34.75;16.48;;;;;;;8.22;100.00;102927.59;5032541;28;20053;-72
2022/04/15 06:27:55;;;;;;;33.35;14.10;;;;;;;8.16;100.00;102936.00;5037948;28;20128;-73
2022/04/15 06:30:24;;;;;;;34.17;14.45;;;;;;;8.16;100.00;102935.09;5029620;28;20064;-72
2022/04/15 06:32:54;;;;;;;29.75;13.40;;;;;;;8.18;100.00;102941.31;5036455;28;20300;-72
2022/04/15 06:35:22;;;;;;;27.05;13.45;;;;;;;8.18;100.00;102942.22;5038054;28;20087;-73
2022/04/15 06:37:51;;;;;;;26.15;11.70;;;;;;;8.30;100.00;102944.63;5035076;28;20099;-74
2022/04/15 06:40:19;;;;;;;31.23;14.40;;;;;;;8.37;100.00;102940.63;5033935;28;20045;-74
2022/04/15 06:42:47;;;;;;;34.92;14.55;;;;;;;8.32;100.00;102947.31;5030047;28;20052;-73
2022/04/15 06:45:14;;;;;;;31.42;13.68;;;;;;;8.39;100.00;102941.63;5037182;28;20051;-73
2022/04/15 06:47:42;;;;;;;28.55;13.60;;;;;;;8.35;100.00;102942.25;5041504;28;20045;-72
2022/04/15 06:50:11;;;;;;;30.40;13.40;;;;;;;8.44;100.00;102953.22;5037413;28;20049;-74
2022/04/15 06:52:39;;;;;;;29.90;13.85;;;;;;;8.40;100.00;102946.03;5029290;28;20049;-73
2022/04/15 06:55:08;;;;;;;32.08;14.18;;;;;;;8.46;100.00;102946.38;5033479;28;20059;-72
2022/04/15 06:57:36;;;;;;;35.00;14.55;;;;;;;8.52;100.00;102947.59;5031415;28;20061;-72
2022/04/15 07:00:06;;;;;;;29.77;13.10;;;;;;;8.61;100.00;102954.16;5037902;28;20352;-72
2022/04/15 07:02:34;;;;;;;33.17;14.45;;;;;;;8.69;100.00;102955.47;5034886;28;20136;-73
2022/04/15 07:05:03;;;;;;;30.80;14.43;;;;;;;8.80;100.00;102955.25;5038305;28;20873;-75
2022/04/15 07:07:32;;;;;;;28.85;14.02;;;;;;;8.80;100.00;102962.19;5037562;28;20493;-74
2022/04/15 07:09:59;;;;;;;33.13;14.70;;;;;;;8.86;100.00;102967.75;5037056;28;20049;-73
2022/04/15 07:12:28;;;;;;;31.55;14.07;;;;;;;8.88;100.00;102967.84;5037046;28;20529;-74
2022/04/15 07:14:57;;;;;;;31.48;14.18;;;;;;;8.91;100.00;102975.84;5040516;28;20067;-73
2022/04/15 07:17:25;;;;;;;30.42;13.90;;;;;;;8.85;100.00;102982.56;5033267;28;20439;-73
2022/04/15 07:19:54;;;;;;;28.25;13.15;;;;;;;8.81;100.00;102987.53;5036525;28;20053;-74
2022/04/15 07:22:22;;;;;;;22.17;10.45;;;;;;;8.88;100.00;102984.44;5029076;28;20064;-73
2022/04/15 07:24:51;;;;;;;24.05;12.38;;;;;;;8.92;100.00;102986.41;5039065;28;20075;-73
2022/04/15 07:27:19;;;;;;;18.77;10.57;;;;;;;8.90;100.00;102987.13;5032318;28;20134;-73
2022/04/15 07:29:47;;;;;;;25.38;11.52;;;;;;;8.91;100.00;102994.19;5039510;28;20134;-74
2022/04/15 07:32:21;;;;;;;16.88;8.93;;;;;;;8.81;100.00;102988.44;5036008;28;20053;-73
2022/04/15 07:34:49;;;;;;;;;;;;;;;8.77;100.00;102989.09;5035268;28;20049;-76
2022/04/15 07:37:20;;;;;;;16.48;8.68;;;;;;;8.91;100.00;102989.84;5031999;28;19939;-73
2022/04/15 07:39:48;;;;;;;18.80;9.88;;;;;;;9.03;99.88;102982.66;5030226;28;20128;-74
2022/04/15 07:42:17;;;;;;;15.30;8.43;;;;;;;9.27;98.34;102976.91;5029006;28;20040;-74
2022/04/15 07:44:45;;;;;;;17.52;7.82;;;;;;;9.38;96.15;102984.47;5037265;28;20067;-74
2022/04/15 07:47:13;;;;;;;15.07;8.40;;;;;;;9.54;95.10;102978.31;5033635;28;20041;-73
2022/04/15 07:49:41;;;;;;;14.05;7.25;;;;;;;9.63;94.63;102975.28;5029568;28;20339;-74
2022/04/15 07:52:09;;;;;;;14.40;8.15;;;;;;;9.33;93.18;102992.94;5033034;28;20100;-73
2022/04/15 07:54:37;;;;;;;13.20;7.63;;;;;;;9.47;94.31;102986.69;5033999;28;20057;-73
2022/04/15 07:57:05;;;;;;;11.85;7.88;;;;;;;9.54;93.27;102986.19;5033834;28;20079;-73
2022/04/15 07:59:34;;;;;;;12.55;6.95;;;;;;;9.62;92.98;102987.47;5030352;28;20065;-73
2022/04/15 08:02:06;;;;;;;13.45;6.50;;;;;;;9.55;92.49;102984.44;5015005;28;20589;-73
2022/04/15 08:04:36;;;;;;;14.73;7.55;;;;;;;9.49;92.89;102982.41;5033463;28;20171;-73
2022/04/15 08:07:05;;;;;;;11.90;6.95;;;;;;;9.49;92.82;102993.78;5030562;28;20053;-73
2022/04/15 08:09:32;;;;;;;11.65;6.72;;;;;;;9.52;93.33;102996.56;5038738;28;20119;-73
2022/04/15 08:12:00;;;;;;;11.23;6.65;;;;;;;9.56;92.99;102986.25;5032432;28;20045;-72
2022/04/15 08:14:28;;;;;;;14.02;7.32;;;;;;;9.88;92.20;102988.78;5036676;28;20396;-73
2022/04/15 08:16:57;;;;;;;14.30;7.75;;;;;;;10.00;92.67;102993.75;5027783;28;20793;-73
2022/04/15 08:19:26;;;;;;;11.60;6.88;;;;;;;10.05;91.01;102987.91;5032421;28;20056;-72
2022/04/15 08:22:00;;;;;;;15.48;7.43;;;;;;;9.96;90.64;102990.06;5032344;28;20132;-73
2022/04/15 08:24:28;;;;;;;12.02;7.43;;;;;;;10.03;90.06;103000.03;5037581;28;20045;-72
2022/04/15 08:26:57;;;;;;;11.82;6.90;;;;;;;9.99;90.21;102998.09;5039971;28;20087;-75
2022/04/15 08:29:27;;;;;;;11.20;6.20;;;;;;;10.10;90.57;103001.25;5040588;28;20053;-73
2022/04/15 08:31:56;;;;;;;11.65;6.63;;;;;;;10.05;89.92;103001.03;5035216;28;20064;-73
2022/04/15 08:34:24;;;;;;;11.13;6.55;;;;;;;10.14;90.07;102992.72;5034498;28;20537;-75
2022/04/15 08:36:52;;;;;;;13.98;7.18;;;;;;;10.24;89.89;102997.63;5037688;28;20048;-73
2022/04/15 08:39:20;;;;;;;13.55;6.85;;;;;;;10.16;88.60;102997.22;5045873;28;20075;-73
2022/04/15 08:41:48;;;;;;;15.02;6.78;;;;;;;10.43;89.22;102991.50;5037900;28;20088;-73
2022/04/15 08:44:16;;;;;;;13.32;6.35;;;;;;;10.56;89.62;102993.00;5038563;28;20519;-73
2022/04/15 08:46:46;;;;;;;12.02;6.45;;;;;;;10.75;87.90;102996.56;5035782;28;20045;-74
2022/04/15 08:49:19;;;;;;;11.85;6.55;;;;;;;10.81;86.72;103007.34;5042312;28;20060;-73
2022/04/15 08:51:48;;;;;;;11.80;7.20;;;;;;;11.15;85.05;103008.91;5040340;28;20041;-74
2022/04/15 08:54:16;;;;;;;11.27;6.30;;;;;;;11.39;84.04;103010.00;5029367;28;20080;-74
2022/04/15 08:56:44;;;;;;;13.05;6.50;;;;;;;11.33;81.54;103014.97;5039229;28;20469;-76
2022/04/15 08:59:12;;;;;;;11.30;7.07;;;;;;;11.82;81.84;103019.75;5030928;28;20041;-74
2022/04/15 09:01:40;;;;;;;11.57;6.40;;;;;;;11.74;81.15;103015.88;5041939;28;20140;-74
2022/04/15 09:04:08;;;;;;;11.63;6.00;;;;;;;11.68;79.83;103008.59;5038985;28;20600;-74
2022/04/15 09:06:38;;;;;;;9.63;6.38;;;;;;;11.82;79.88;103014.50;5039068;28;20054;-74
2022/04/15 09:09:08;;;;;;;11.48;6.20;;;;;;;11.76;80.68;103011.56;5036681;28;20048;-74
2022/04/15 09:11:37;;;;;;;9.38;5.57;;;;;;;11.82;78.67;103022.38;5037440;28;20115;-74
2022/04/15 09:14:10;;;;;;;10.15;5.68;;;;;;;12.01;79.53;103018.81;5032778;28;20049;-75
2022/04/15 09:16:39;;;;;;;11.73;5.50;;;;;;;11.98;78.79;103029.19;5034936;28;20096;-74
2022/04/15 09:19:08;;;;;;;9.02;5.63;;;;;;;11.97;77.91;103028.28;5036346;28;20178;-73
2022/04/15 09:21:39;;;;;;;10.95;6.03;;;;;;;11.88;78.20;103027.91;5027896;28;20687;-73
2022/04/15 09:24:07;;;;;;;9.40;5.40;;;;;;;11.92;78.17;103024.56;5037570;28;20136;-73
2022/04/15 09:26:37;;;;;;;11.93;5.38;;;;;;;11.75;78.13;103030.81;5031857;28;20052;-74
2022/04/15 09:29:05;;;;;;;9.77;6.03;;;;;;;11.84;77.40;103020.72;5031926;28;20122;-74
2022/04/15 09:31:33;;;;;;;11.65;6.10;;;;;;;12.13;76.65;103023.69;5034969;28;20054;-74
2022/04/15 09:34:03;;;;;;;10.60;6.60;;;;;;;12.04;77.54;103029.44;5033694;28;20080;-74
2022/04/15 09:36:32;;;;;;;9.30;4.93;;;;;;;12.01;76.96;103024.06;5037416;28;20061;-74
2022/04/15 09:39:10;;;;;;;11.82;5.53;;;;;;;12.01;77.57;103031.94;5036896;28;20668;-74
2022/04/15 09:41:40;;;;;;;10.93;5.18;;;;;;;12.43;75.84;103030.19;5030441;28;20106;-73
2022/04/15 09:44:12;;;;;;;11.30;5.43;;;;;;;12.86;73.45;103031.88;5036376;28;20059;-74
2022/04/15 09:46:45;;;;;;;13.20;6.20;;;;;;;12.93;74.28;103033.91;5033814;28;20501;-76
2022/04/15 09:49:14;;;;;;;7.40;5.28;;;;;;;12.80;73.29;103031.63;5041640;28;20267;-74
2022/04/15 09:51:44;;;;;;;12.75;6.05;;;;;;;12.80;72.46;103039.53;5039919;28;20048;-72
2022/04/15 09:54:22;;;;;;;9.65;5.45;;;;;;;12.86;71.92;103037.13;5031375;28;20549;-74
2022/04/15 09:56:53;;;;;;;9.30;5.07;;;;;;;12.66;72.91;103039.88;5033268;28;20037;-74
2022/04/15 09:59:26;;;;;;;10.75;5.28;;;;;;;12.97;73.16;103034.06;5034130;28;20109;-74
2022/04/15 10:01:58;;;;;;;10.17;5.63;;;;;;;13.25;71.70;103035.16;5018439;28;20310;-74
2022/04/15 10:04:28;;;;;;;8.38;5.55;;;;;;;13.30;70.50;103029.22;5042461;28;20055;-74
2022/04/15 10:07:00;;;;;;;8.70;5.75;;;;;;;13.12;70.44;103028.50;5035480;28;20785;-74
2022/04/15 10:09:38;;;;;;;11.48;5.50;;;;;;;13.50;69.75;103029.03;5031129;28;20131;-74
2022/04/15 10:12:07;;;;;;;10.52;5.88;;;;;;;13.75;69.21;103021.13;5034889;28;20052;-74
2022/04/15 10:14:36;;;;;;;9.02;5.38;;;;;;;13.85;68.05;103027.63;5035744;28;20053;-74
2022/04/15 10:17:04;;;;;;;13.23;5.65;;;;;;;13.84;68.64;103029.34;5046908;28;20052;-74
2022/04/15 10:19:35;;;;;;;9.43;5.95;;;;;;;14.12;67.14;103025.03;5039146;28;20061;-74
2022/04/15 10:22:03;;;;;;;8.50;5.22;;;;;;;14.27;66.94;103029.06;5037584;28;20180;-74
2022/04/15 10:24:32;;;;;;;8.90;5.53;;;;;;;14.47;65.38;103035.03;5034050;28;20049;-74
2022/04/15 10:27:02;;;;;;;9.50;5.93;;;;;;;14.46;64.74;103030.59;5032357;28;20497;-74
2022/04/15 10:29:31;;;;;;;10.38;5.72;;;;;;;13.83;65.44;103034.56;5032875;28;20060;-74
2022/04/15 10:32:12;;;;;;;10.60;5.55;;;;;;;14.07;65.91;103041.59;5039675;28;20072;-74
2022/04/15 10:34:45;;;;;;;7.93;5.03;;;;;;;14.23;66.23;103034.19;5029643;28;20052;-73
2022/04/15 10:37:13;;;;;;;7.72;5.13;;;;;;;13.64;66.58;103039.22;5040948;28;20087;-75
2022/04/15 10:39:48;;;;;;;11.05;5.35;;;;;;;13.82;66.66;103036.31;5039344;28;20163;-74
2022/04/15 10:42:20;;;;;;;7.80;5.28;;;;;;;14.03;66.47;103034.41;5034999;28;20632;-74
2022/04/15 10:44:48;;;;;;;14.38;6.28;;;;;;;14.30;65.40;103033.56;5033072;28;20061;-74
2022/04/15 10:47:37;;;;;;;9.25;4.90;;;;;;;14.46;63.91;103033.22;5036395;28;20051;-75
2022/04/15 10:50:06;;;;;;;9.88;5.57;;;;;;;14.26;64.04;103036.94;5033793;28;20065;-75
2022/04/15 10:52:36;;;;;;;9.63;4.88;;;;;;;14.27;64.06;103030.81;5037125;28;20049;-75
2022/04/15 10:55:07;;;;;;;7.72;4.80;;;;;;;14.37;63.24;103031.16;5032238;28;20068;-75
2022/04/15 10:57:36;;;;;;;9.35;5.40;;;;;;;14.47;63.61;103029.75;5034881;28;20055;-75
2022/04/15 11:02:57;;;;;;;8.20;4.40;;;;;;;14.85;62.28;103024.72;5037546;28;20532;-75
2022/04/15 11:05:36;;;;;;;8.57;5.65;;;;;;;14.90;60.47;103017.84;5039901;28;20090;-74
2022/04/15 11:08:11;;;;;;;10.40;4.80;;;;;;;15.15;62.01;103014.19;5031392;28;20073;-74
2022/04/15 11:11:03;;;;;;;7.38;5.00;;;;;;;15.62;60.24;103005.81;5036827;28;20111;-74
2022/04/15 11:13:58;;;;;;;8.82;4.82;;;;;;;15.76;59.63;103014.13;5035225;28;20404;-75
2022/04/15 11:16:43;;;;;;;7.97;5.20;;;;;;;15.82;58.20;103010.75;5033084;28;20056;-74
2022/04/15 11:19:12;;;;;;;6.65;4.43;;;;;;;15.77;58.96;103017.66;5043066;28;20428;-74
2022/04/15 11:21:41;;;;;;;7.93;4.57;;;;;;;15.56;58.52;103015.34;5036107;28;20150;-73
2022/04/15 11:24:10;;;;;;;8.98;4.90;;;;;;;15.47;59.02;103023.91;5035439;28;20144;-74
2022/04/15 11:26:42;;;;;;;8.60;4.32;;;;;;;15.25;59.05;103017.13;5038993;28;20131;-75
2022/04/15 11:29:12;;;;;;;8.57;4.72;;;;;;;15.57;59.47;103018.06;5033550;28;20136;-75